Portada
METAR-TAF:

METAR-TAF

Aeroports :

Aeroport Internacional de Riga

Riga, Letònia

latitud: 56-55N, longitud: 023-58E, altitud: 10 m

Observació

L'informe es va fer fa 26 minuts, a les 18:50 UTC
Vent 4 kt del Est/Nord-Est, variant entre Nord/Nord-Est i Est
Temperatura 1°C
Humitat 75%
Pressió 1017 hPa
Visibilitat 10 km o més
Escasses núvols a una alçada de 3100 ft

METAR: EVRA 101850Z 07004KT 030V100 9999 FEW031 01/M03 Q1017 R36/290195 NOSIG

Hora: 21:16 (19:16 UTC)

Pronòstic

L'informe es va fer fa 2 hores i 16 minuts, a les 17:00 UTC
Pronòstic vàlid del 10 a les 18 UTC al 11 a les 18 UTC
Vent 10 kt del Nord
Visibilitat 10 km o més
Núvols disperses a una alçada de 2000 ft
Evolucionant progressivament
l' 10 a les 21 UTC al 10 a les 23 UTC
Vent 7 kt del Sud

TAF: EVRA 101700Z 1018/1118 35010KT 9999 SCT020 BECMG 1021/1023 18007KT

Observacions i pronòstics meteorològics de més de 4000 aeroports (METAR i TAF).

Les estacions disponibles són els punts grocs i vermells al mapa.

Posi el ratolí al punt desitjat per veure el nom de l'estació.

Feu clic per veure les observacions i els pronòstics meteorològics.

Per canviar el mapa: feu clic els botons verds amb una creu de color negre per apropar; al botó verd amb un guió per allunyar la imatge; o en les fletxes verdes per a mapes adjacents.


METAR-TAF: